Time;durP1;ratioP1;P1;durP2;ratioP2;P2;SDS_P1;SDS_P2;PMS_P1;PMS_P2;Temp;Humidity;BMP_temperature;BMP_pressure;BME280_temperature;BME280_humidity;BME280_pressure;Samples;Min_cycle;Max_cycle;Signal;HPM_P1;HPM_P2
2024/04/08 00:05:46;;;;;;;5.6;3.1;;;;;;;14.55;77.03;98876.666666667;;;;
2024/04/08 00:15:46;;;;;;;5.6;3.1;;;;;;;14.21;78.4;98876.666666667;;;;
2024/04/08 00:26:46;;;;;;;9;5.7;;;;;;;13.77;79.8;98881.666666667;;;;
2024/04/08 00:36:46;;;;;;;9;5.7;;;;;;;13.5;80.63;98876.666666667;;;;
2024/04/08 00:47:46;;;;;;;9;5.7;;;;;;;13.36;81.24;98878.333333333;;;;
2024/04/08 00:58:46;;;;;;;6.7;4.4;;;;;;;13.28;81.17;98871.666666667;;;;
2024/04/08 01:08:46;;;;;;;6.7;4.4;;;;;;;13.22;80.65;98881.666666667;;;;
2024/04/08 01:19:48;;;;;;;6.7;4.4;;;;;;;13.2;82.32;98876.666666667;;;;
2024/04/08 01:29:46;;;;;;;7;4.7;;;;;;;13.12;82.6;98878.333333333;;;;
2024/04/08 01:39:46;;;;;;;7;4.7;;;;;;;13.15;84.16;98875;;;;
2024/04/08 01:50:46;;;;;;;7;4.7;;;;;;;13.09;83.31;98878.333333333;;;;
2024/04/08 02:00:46;;;;;;;8.8;4.4;;;;;;;12.99;83.39;98868.333333333;;;;
2024/04/08 02:11:47;;;;;;;8.8;4.4;;;;;;;12.79;83.11;98856.666666667;;;;
2024/04/08 02:22:46;;;;;;;8.8;4.4;;;;;;;12.72;84.33;98848.333333333;;;;
2024/04/08 02:33:46;;;;;;;7;4.3;;;;;;;12.51;84.01;98848.333333333;;;;
2024/04/08 02:44:46;;;;;;;7;4.3;;;;;;;12.36;84.21;98845;;;;
2024/04/08 02:54:46;;;;;;;7;4.3;;;;;;;12.23;84.89;98833.333333333;;;;
2024/04/08 03:04:47;;;;;;;6;3.9;;;;;;;12.18;85;98830;;;;
2024/04/08 03:15:46;;;;;;;6;3.9;;;;;;;12.05;85.87;98813.333333333;;;;
2024/04/08 03:25:47;;;;;;;5.7;3.4;;;;;;;12.05;85.92;98811.666666667;;;;
2024/04/08 03:36:46;;;;;;;5.7;3.4;;;;;;;11.99;86.38;98813.333333333;;;;
2024/04/08 03:46:47;;;;;;;5.7;3.4;;;;;;;12.01;86.48;98818.333333333;;;;
2024/04/08 03:56:47;;;;;;;7.3;3.8;;;;;;;11.99;86.68;98811.666666667;;;;
2024/04/08 04:06:47;;;;;;;7.3;3.8;;;;;;;12;87.9;98808.333333333;;;;
2024/04/08 04:17:46;;;;;;;7.3;3.8;;;;;;;12.11;88.03;98808.333333333;;;;
2024/04/08 04:28:47;;;;;;;6.8;3.3;;;;;;;12.24;87.79;98808.333333333;;;;
2024/04/08 04:39:47;;;;;;;6.8;3.3;;;;;;;12.49;87.7;98816.666666667;;;;
2024/04/08 04:50:47;;;;;;;6.8;3.3;;;;;;;12.7;88.03;98815;;;;
2024/04/08 05:01:46;;;;;;;7.3;4.7;;;;;;;13.28;87.16;98826.666666667;;;;
2024/04/08 05:11:47;;;;;;;7.3;4.7;;;;;;;13.7;85.6;98818.333333333;;;;
2024/04/08 05:22:47;;;;;;;7.3;4.7;;;;;;;14.24;84.49;98818.333333333;;;;
2024/04/08 05:33:47;;;;;;;14.3;7.7;;;;;;;14.81;82.65;98816.666666667;;;;
2024/04/08 05:44:46;;;;;;;14.3;7.7;;;;;;;15.55;81.36;98818.333333333;;;;
2024/04/08 05:54:47;;;;;;;10.9;5.5;;;;;;;16.09;78.83;98821.666666667;;;;
2024/04/08 06:05:47;;;;;;;10.9;5.5;;;;;;;16.5;77.3;98818.333333333;;;;
2024/04/08 06:16:47;;;;;;;10.9;5.5;;;;;;;16.88;76.79;98813.333333333;;;;
2024/04/08 06:27:47;;;;;;;12.7;6;;;;;;;17.18;75.56;98818.333333333;;;;
2024/04/08 06:38:46;;;;;;;12.7;6;;;;;;;17.49;74.95;98808.333333333;;;;
2024/04/08 06:49:47;;;;;;;12.7;6;;;;;;;18.04;73.36;98816.666666667;;;;
2024/04/08 07:00:47;;;;;;;10.9;7.3;;;;;;;18.58;71.77;98820;;;;
2024/04/08 07:10:47;;;;;;;10.9;7.3;;;;;;;18.83;69.33;98821.666666667;;;;
2024/04/08 07:21:47;;;;;;;10.9;7.3;;;;;;;19.22;70.57;98826.666666667;;;;
2024/04/08 07:31:47;;;;;;;6.5;4.8;;;;;;;19.39;67.81;98828.333333333;;;;
2024/04/08 07:41:47;;;;;;;6.5;4.8;;;;;;;19.76;66.53;98828.333333333;;;;
2024/04/08 07:52:47;;;;;;;6.5;4.8;;;;;;;20.09;66.55;98831.666666667;;;;
2024/04/08 08:02:47;;;;;;;7.3;3.9;;;;;;;20.76;65.55;98826.666666667;;;;
2024/04/08 08:12:47;;;;;;;7.3;3.9;;;;;;;21.39;65.39;98818.333333333;;;;
2024/04/08 08:23:47;;;;;;;7.3;3.9;;;;;;;21.83;62.83;98813.333333333;;;;
2024/04/08 08:34:47;;;;;;;8.3;3.9;;;;;;;22.41;61.67;98806.666666667;;;;
2024/04/08 08:44:47;;;;;;;8.3;3.9;;;;;;;22.95;59.33;98803.333333333;;;;
2024/04/08 08:55:47;;;;;;;5.8;2.7;;;;;;;23.57;57.19;98796.666666667;;;;
2024/04/08 09:06:47;;;;;;;5.8;2.7;;;;;;;23.85;54.18;98793.333333333;;;;
2024/04/08 09:17:47;;;;;;;5.8;2.7;;;;;;;24.63;51.23;98780;;;;
2024/04/08 09:27:47;;;;;;;4.5;2.2;;;;;;;25.02;50.52;98773.333333333;;;;
2024/04/08 09:37:47;;;;;;;4.5;2.2;;;;;;;25.11;45.82;98756.666666667;;;;
2024/04/08 09:48:47;;;;;;;4.5;2.2;;;;;;;25.24;48.48;98743.333333333;;;;
2024/04/08 09:59:47;;;;;;;4.2;2.2;;;;;;;25.56;45.29;98738.333333333;;;;
2024/04/08 10:09:47;;;;;;;4.2;2.2;;;;;;;25.86;44.83;98726.666666667;;;;
2024/04/08 10:20:47;;;;;;;4.2;2.2;;;;;;;26.16;43.6;98715;;;;
2024/04/08 10:30:47;;;;;;;5.2;2.1;;;;;;;26.5;44.54;98708.333333333;;;;
2024/04/08 10:41:47;;;;;;;5.2;2.1;;;;;;;27;41.93;98695;;;;
2024/04/08 10:51:48;;;;;;;5.2;2.1;;;;;;;27.42;44.53;98688.333333333;;;;
2024/04/08 11:01:47;;;;;;;4.3;1.7;;;;;;;27.77;40.14;98676.666666667;;;;
2024/04/08 11:11:47;;;;;;;4.3;1.7;;;;;;;28.23;39.52;98670;;;;
2024/04/08 11:22:47;;;;;;;4.3;1.7;;;;;;;28.07;37.65;98656.666666667;;;;
2024/04/08 11:33:47;;;;;;;3.7;1.7;;;;;;;28.38;40.12;98640;;;;
2024/04/08 11:43:47;;;;;;;3.7;1.7;;;;;;;28.06;41.72;98638.333333333;;;;
2024/04/08 11:54:47;;;;;;;3.7;1.7;;;;;;;28.03;37.79;98628.333333333;;;;
2024/04/08 12:04:47;;;;;;;3.5;1.4;;;;;;;28.15;37.55;98616.666666667;;;;
2024/04/08 12:14:47;;;;;;;3.5;1.4;;;;;;;27.92;37.5;98610;;;;
2024/04/08 12:24:47;;;;;;;3.5;1.4;;;;;;;28.1;39.23;98601.666666667;;;;
2024/04/08 12:34:47;;;;;;;4.7;1.5;;;;;;;28.07;37.77;98590;;;;
2024/04/08 12:45:47;;;;;;;4.7;1.5;;;;;;;28.38;37.4;98580;;;;
2024/04/08 12:55:50;;;;;;;5;1.4;;;;;;;28.13;34.68;98566.666666667;;;;
2024/04/08 13:05:49;;;;;;;5;1.4;;;;;;;28.45;35.91;98556.666666667;;;;
2024/04/08 13:15:47;;;;;;;5;1.4;;;;;;;28.67;38.54;98548.333333333;;;;
2024/04/08 13:26:48;;;;;;;3.1;1.4;;;;;;;28.74;34.47;98546.666666667;;;;
2024/04/08 13:36:47;;;;;;;3.1;1.4;;;;;;;28.6;33.12;98535;;;;
2024/04/08 13:47:47;;;;;;;3.1;1.4;;;;;;;28.82;32.67;98526.666666667;;;;
2024/04/08 13:57:47;;;;;;;2.9;1.3;;;;;;;29.1;31.57;98518.333333333;;;;
2024/04/08 14:07:47;;;;;;;2.9;1.3;;;;;;;29.48;30.96;98506.666666667;;;;
2024/04/08 14:17:47;;;;;;;2.9;1.3;;;;;;;29.53;31.05;98508.333333333;;;;
2024/04/08 14:28:47;;;;;;;3;1.2;;;;;;;29.85;35.03;98506.666666667;;;;
2024/04/08 14:39:47;;;;;;;3;1.2;;;;;;;29.8;30.78;98498.333333333;;;;
2024/04/08 14:49:47;;;;;;;3;1.2;;;;;;;29.86;32.98;98490;;;;
2024/04/08 14:59:48;;;;;;;2.9;1.3;;;;;;;28.93;36.19;98488.333333333;;;;
2024/04/08 15:10:47;;;;;;;2.9;1.3;;;;;;;29.7;31.26;98483.333333333;;;;
2024/04/08 15:20:47;;;;;;;2.9;1.3;;;;;;;30.33;29.44;98483.333333333;;;;
2024/04/08 15:31:47;;;;;;;4;1.1;;;;;;;31.38;31.59;98478.333333333;;;;
2024/04/08 15:42:47;;;;;;;4;1.1;;;;;;;30.87;29.17;98478.333333333;;;;
2024/04/08 15:53:47;;;;;;;4;1.1;;;;;;;31.15;30.59;98478.333333333;;;;
2024/04/08 16:03:47;;;;;;;3.9;1.2;;;;;;;31.32;30.22;98476.666666667;;;;
2024/04/08 16:14:47;;;;;;;3.9;1.2;;;;;;;30.37;31.52;98476.666666667;;;;
2024/04/08 16:24:47;;;;;;;3.9;1.2;;;;;;;29.02;32.43;98478.333333333;;;;
2024/04/08 16:34:47;;;;;;;3.3;1.5;;;;;;;28.05;33.21;98478.333333333;;;;
2024/04/08 16:45:47;;;;;;;3.3;1.5;;;;;;;26.81;34.71;98478.333333333;;;;
2024/04/08 16:55:47;;;;;;;3.3;1.5;;;;;;;25.75;36.1;98478.333333333;;;;
2024/04/08 17:05:47;;;;;;;5.7;2.3;;;;;;;24.77;38.38;98476.666666667;;;;
2024/04/08 17:16:49;;;;;;;5.7;2.3;;;;;;;23.46;41.73;98478.333333333;;;;
2024/04/08 17:26:47;;;;;;;4.1;1.9;;;;;;;23.16;40.16;98483.333333333;;;;
2024/04/08 17:37:47;;;;;;;4.1;1.9;;;;;;;22.64;40.31;98485;;;;
2024/04/08 17:48:47;;;;;;;4.1;1.9;;;;;;;22.28;41.63;98478.333333333;;;;
2024/04/08 17:58:47;;;;;;;4.4;1.7;;;;;;;21.92;40.48;98478.333333333;;;;
2024/04/08 18:09:47;;;;;;;4.4;1.7;;;;;;;21.62;42.11;98485;;;;
2024/04/08 18:19:47;;;;;;;4.4;1.7;;;;;;;21.38;42.93;98488.333333333;;;;
2024/04/08 18:29:47;;;;;;;4.3;1.9;;;;;;;21.26;42.9;98493.333333333;;;;
2024/04/08 18:39:47;;;;;;;4.3;1.9;;;;;;;21.18;43.26;98496.666666667;;;;
2024/04/08 18:49:47;;;;;;;4.3;1.9;;;;;;;21.07;43.52;98496.666666667;;;;
2024/04/08 19:00:47;;;;;;;5.3;1.9;;;;;;;21.16;42.13;98505;;;;
2024/04/08 19:10:47;;;;;;;5.3;1.9;;;;;;;20.79;43.5;98520;;;;
2024/04/08 19:21:47;;;;;;;5.3;1.9;;;;;;;20.4;44.6;98520;;;;
2024/04/08 19:32:47;;;;;;;5.3;2.1;;;;;;;20.21;45.72;98520;;;;
2024/04/08 19:43:47;;;;;;;5.3;2.1;;;;;;;20.32;44.04;98516.666666667;;;;
2024/04/08 19:54:47;;;;;;;5.3;2.1;;;;;;;20.42;43.81;98530;;;;
2024/04/08 20:05:47;;;;;;;3.5;1.4;;;;;;;20.08;44.46;98530;;;;
2024/04/08 20:16:49;;;;;;;3.5;1.4;;;;;;;20.04;43.9;98531.666666667;;;;
2024/04/08 20:26:47;;;;;;;4.7;1.4;;;;;;;19.8;44.41;98533.333333333;;;;
2024/04/08 20:36:47;;;;;;;4.7;1.4;;;;;;;19.48;44.93;98530;;;;
2024/04/08 20:47:47;;;;;;;4.7;1.4;;;;;;;19.25;45.32;98526.666666667;;;;
2024/04/08 20:57:47;;;;;;;4;1.5;;;;;;;18.93;47.16;98520;;;;
2024/04/08 21:08:47;;;;;;;4;1.5;;;;;;;18.93;45.75;98513.333333333;;;;
2024/04/08 21:19:47;;;;;;;4;1.5;;;;;;;18.53;46.99;98516.666666667;;;;
2024/04/08 21:29:47;;;;;;;4.8;1.8;;;;;;;17.99;47.38;98526.666666667;;;;
2024/04/08 21:40:47;;;;;;;4.8;1.8;;;;;;;17.28;49.93;98518.333333333;;;;
2024/04/08 21:51:47;;;;;;;4.8;1.8;;;;;;;16.84;50.75;98510;;;;
2024/04/08 22:01:47;;;;;;;5.4;2;;;;;;;16.51;52.87;98505;;;;
2024/04/08 22:11:47;;;;;;;5.4;2;;;;;;;16.09;52.85;98506.666666667;;;;
2024/04/08 22:22:47;;;;;;;5.4;2;;;;;;;15.69;53.99;98500;;;;
2024/04/08 22:33:47;;;;;;;4.4;2.2;;;;;;;15.37;56.07;98505;;;;
2024/04/08 22:44:47;;;;;;;4.4;2.2;;;;;;;15.07;58.76;98503.333333333;;;;
2024/04/08 22:55:48;;;;;;;4.4;2.2;;;;;;;14.95;57.07;98498.333333333;;;;
2024/04/08 23:06:47;;;;;;;5.1;2.4;;;;;;;14.66;57.86;98495;;;;
2024/04/08 23:16:47;;;;;;;5.1;2.4;;;;;;;14.46;59.35;98490;;;;
2024/04/08 23:27:47;;;;;;;4.3;2.2;;;;;;;14.21;60.17;98481.666666667;;;;
2024/04/08 23:37:48;;;;;;;4.3;2.2;;;;;;;13.83;61.18;98476.666666667;;;;
2024/04/08 23:48:47;;;;;;;4.3;2.2;;;;;;;13.67;63.15;98468.333333333;;;;
2024/04/08 23:58:49;;;;;;;5;2;;;;;;;13.35;63.33;98465;;;;
